Time;durP1;ratioP1;P1;durP2;ratioP2;P2;SDS_P1;SDS_P2;PMS_P1;PMS_P2;Temp;Humidity;BMP_temperature;BMP_pressure;BME280_temperature;BME280_humidity;BME280_pressure;Samples;Min_cycle;Max_cycle;Signal;HPM_P1;HPM_P2
2021/12/01 00:00:09;;;;;;;8.00;3.90;;;9.60;78.70;;;12.27;61.18;99949.69;4937189;29;20193;-48
2021/12/01 00:02:36;;;;;;;6.60;3.70;;;9.50;78.60;;;12.33;60.38;99948.88;4932799;29;20666;-49
2021/12/01 00:05:08;;;;;;;6.40;3.93;;;9.60;78.80;;;12.35;60.38;99936.28;4942725;29;20205;-48
2021/12/01 00:07:36;;;;;;;5.67;3.47;;;9.60;78.70;;;12.42;60.66;99937.91;4922166;29;20224;-49
2021/12/01 00:10:05;;;;;;;7.77;3.67;;;9.60;78.70;;;12.47;60.13;99926.72;4939127;29;20196;-48
2021/12/01 00:12:32;;;;;;;4.07;3.03;;;9.70;78.80;;;12.46;60.52;99903.97;4939935;29;20280;-49
2021/12/01 00:15:00;;;;;;;6.83;3.40;;;9.70;78.70;;;12.46;60.33;99896.88;4939106;29;20689;-49
2021/12/01 00:17:28;;;;;;;7.73;4.40;;;9.70;78.70;;;12.44;60.29;99887.53;4938859;29;20221;-49
2021/12/01 00:19:55;;;;;;;6.83;4.07;;;9.70;78.60;;;12.41;60.75;99883.50;4939365;29;20549;-48
2021/12/01 00:22:24;;;;;;;10.37;4.00;;;9.70;78.70;;;12.41;60.48;99875.56;4939061;29;20194;-48
2021/12/01 00:24:53;;;;;;;7.60;4.70;;;9.70;78.80;;;12.41;60.47;99870.28;4939327;29;20247;-48
2021/12/01 00:27:20;;;;;;;7.77;5.30;;;9.70;78.80;;;12.38;60.70;99862.00;4938810;29;20220;-48
2021/12/01 00:29:49;;;;;;;7.63;4.00;;;9.70;78.90;;;12.38;60.82;99854.09;4941689;29;20299;-49
2021/12/01 00:32:17;;;;;;;6.83;4.47;;;9.70;78.90;;;12.39;60.92;99845.94;4939250;29;20290;-50
2021/12/01 00:34:45;;;;;;;5.13;3.67;;;9.70;79.10;;;12.38;60.82;99841.69;4938710;29;20241;-50
2021/12/01 00:37:12;;;;;;;5.03;4.10;;;9.70;79.20;;;12.43;61.06;99835.78;4938745;29;20224;-47
2021/12/01 00:39:41;;;;;;;11.03;4.83;;;9.70;79.30;;;12.43;61.08;99828.66;4938700;29;20218;-46
2021/12/01 00:42:10;;;;;;;6.63;4.40;;;9.70;79.40;;;12.44;60.89;99821.56;4938834;29;20194;-52
2021/12/01 00:44:45;;;;;;;6.00;4.57;;;9.70;79.30;;;12.42;60.94;99810.41;4939002;29;20272;-50
2021/12/01 00:47:14;;;;;;;7.53;4.83;;;9.70;79.50;;;12.43;61.11;99801.50;4938287;29;20561;-49
2021/12/01 00:49:42;;;;;;;5.37;4.23;;;9.70;79.50;;;12.43;61.14;99790.94;4938748;29;20195;-49
2021/12/01 00:52:10;;;;;;;8.17;4.80;;;9.70;79.50;;;12.40;61.21;99783.44;4941394;29;20279;-50
2021/12/01 00:54:37;;;;;;;5.67;4.50;;;9.70;79.60;;;12.40;61.45;99786.06;4938480;29;20200;-49
2021/12/01 00:57:06;;;;;;;4.83;3.90;;;9.70;79.60;;;12.38;61.52;99782.84;4937901;29;20200;-48
2021/12/01 00:59:34;;;;;;;6.50;4.00;;;9.70;79.60;;;12.35;61.25;99768.22;4938865;29;20224;-47
2021/12/01 01:02:02;;;;;;;5.17;3.63;;;9.70;79.70;;;12.31;61.79;99761.75;4938091;29;20194;-48
2021/12/01 01:04:30;;;;;;;5.63;3.90;;;9.70;79.70;;;12.28;61.94;99758.72;4938270;29;20198;-49
2021/12/01 01:06:58;;;;;;;3.93;3.53;;;9.70;79.80;;;12.24;62.15;99755.69;4937870;29;20272;-51
2021/12/01 01:09:31;;;;;;;5.97;4.30;;;9.70;80.00;;;12.21;62.38;99741.09;4937207;29;20182;-50
2021/12/01 01:17:38;;;;;;;4.37;3.97;;;9.60;80.20;;;12.19;62.63;99714.09;4937865;29;20217;-51
2021/12/01 01:20:11;;;;;;;6.23;4.20;;;9.60;80.40;;;12.19;62.75;99705.41;4938406;29;20644;-49
2021/12/01 01:22:40;;;;;;;4.57;3.93;;;9.60;80.60;;;12.21;62.28;99708.63;4938422;29;20194;-49
2021/12/01 01:25:09;;;;;;;4.33;3.80;;;9.60;80.70;;;12.22;62.86;99695.22;4937930;29;20278;-50
2021/12/01 01:27:37;;;;;;;5.07;3.90;;;9.60;80.70;;;12.21;62.76;99693.63;4920506;29;20228;-48
2021/12/01 01:30:07;;;;;;;4.90;4.40;;;9.60;80.70;;;12.16;62.76;99682.88;4937558;29;20269;-50
2021/12/01 01:32:35;;;;;;;4.20;3.70;;;9.60;81.10;;;12.13;62.78;99672.75;4938023;29;20190;-48
2021/12/01 01:35:03;;;;;;;4.77;4.37;;;9.60;81.00;;;12.13;63.25;99669.28;4937704;29;20198;-50
2021/12/01 01:37:31;;;;;;;4.47;4.07;;;9.60;81.20;;;12.12;62.97;99663.19;4937502;29;20250;-49
2021/12/01 01:39:59;;;;;;;5.07;4.67;;;9.60;81.20;;;12.11;63.48;99650.22;4938176;29;20216;-50
2021/12/01 01:42:26;;;;;;;4.60;4.20;;;9.60;81.30;;;12.12;63.53;99655.28;4937748;29;20194;-49
2021/12/01 01:44:54;;;;;;;5.47;4.97;;;9.60;81.50;;;12.07;63.81;99639.31;4937657;29;20586;-49
2021/12/01 01:47:23;;;;;;;7.83;4.97;;;9.60;81.70;;;12.01;64.12;99634.06;4937120;29;20213;-51
2021/12/01 01:49:57;;;;;;;5.57;5.07;;;9.60;82.60;;;11.96;64.37;99621.50;4937653;29;20200;-48
2021/12/01 01:52:26;;;;;;;5.30;4.70;;;9.60;82.10;;;11.95;64.62;99619.91;4920705;29;20204;-47
2021/12/01 01:54:55;;;;;;;4.87;4.37;;;9.60;82.20;;;11.96;64.22;99608.31;4937559;29;20199;-47
2021/12/01 01:57:22;;;;;;;4.43;4.03;;;9.50;82.10;;;11.99;64.51;99607.09;4937175;29;20702;-48
2021/12/01 01:59:50;;;;;;;5.30;4.40;;;9.50;82.30;;;12.02;64.17;99596.94;4937428;29;20224;-49
2021/12/01 02:02:18;;;;;;;4.37;4.07;;;9.50;82.50;;;12.09;64.07;99591.63;4937334;29;20197;-51
2021/12/01 02:04:47;;;;;;;5.00;4.50;;;9.60;82.80;;;12.12;64.22;99586.72;4930316;29;20281;-48
2021/12/01 02:07:14;;;;;;;4.93;4.37;;;9.60;82.80;;;12.12;64.17;99568.25;4917905;29;20304;-51
2021/12/01 02:09:44;;;;;;;4.10;3.80;;;9.60;82.80;;;12.15;64.30;99561.75;4901375;29;20190;-48
2021/12/01 02:12:11;;;;;;;4.10;3.70;;;9.60;82.90;;;12.20;64.01;99561.91;4918133;29;20222;-49
2021/12/01 02:14:39;;;;;;;5.53;3.63;;;9.60;82.90;;;12.23;64.23;99553.56;4918276;29;20198;-48
2021/12/01 02:17:06;;;;;;;4.37;3.97;;;9.70;83.00;;;12.27;64.68;99546.03;4917742;29;20204;-51
2021/12/01 02:19:38;;;;;;;4.10;3.50;;;9.70;83.30;;;12.27;64.45;99538.13;4917734;29;20222;-51
2021/12/01 02:22:07;;;;;;;3.43;3.13;;;9.70;83.20;;;12.29;64.54;99536.09;4917628;29;20203;-50
2021/12/01 02:24:35;;;;;;;3.30;3.00;;;9.80;83.50;;;12.31;64.84;99528.75;4917682;29;20250;-50
2021/12/01 02:27:03;;;;;;;3.63;3.33;;;9.80;83.60;;;12.30;65.23;99513.94;4918120;29;20198;-50
2021/12/01 02:29:31;;;;;;;3.03;2.83;;;9.80;83.80;;;12.33;65.06;99505.59;4901652;29;20723;-48
2021/12/01 02:31:58;;;;;;;3.03;2.83;;;9.80;83.60;;;12.37;65.22;99486.50;4919061;29;20206;-49
2021/12/01 02:34:26;;;;;;;3.57;3.20;;;9.80;83.60;;;12.45;64.82;99488.03;4917529;29;20198;-51
2021/12/01 02:36:56;;;;;;;3.70;3.07;;;9.90;83.70;;;12.50;64.49;99480.28;4917031;29;20233;-49
2021/12/01 02:39:27;;;;;;;3.60;3.30;;;9.90;83.80;;;12.54;64.81;99479.63;4917529;29;20566;-48
2021/12/01 02:41:57;;;;;;;3.50;3.20;;;10.00;82.80;;;12.59;65.18;99471.06;4918101;29;20221;-50
2021/12/01 02:44:27;;;;;;;3.77;3.47;;;10.00;82.80;;;12.63;65.06;99459.03;4918310;29;20193;-47
2021/12/01 02:46:55;;;;;;;4.20;3.90;;;10.00;82.80;;;12.66;64.89;99454.13;4920766;29;20640;-48
2021/12/01 02:49:25;;;;;;;4.10;3.70;;;10.10;83.10;;;12.70;64.93;99438.63;4917858;29;20632;-47
2021/12/01 02:51:54;;;;;;;3.77;3.47;;;10.10;83.10;;;12.72;65.13;99424.19;4917897;29;20187;-49
2021/12/01 02:54:25;;;;;;;4.07;3.77;;;10.20;83.10;;;12.79;65.29;99421.47;4917257;29;20222;-48
2021/12/01 02:56:55;;;;;;;4.67;4.17;;;10.20;83.30;;;12.80;65.42;99416.00;4917448;29;20222;-49
2021/12/01 02:59:24;;;;;;;5.03;4.60;;;10.20;83.50;;;12.83;65.52;99406.81;4917808;29;20229;-48
2021/12/01 03:01:53;;;;;;;5.23;4.80;;;10.30;83.70;;;12.86;65.29;99395.78;4923264;29;20220;-48
2021/12/01 03:04:22;;;;;;;5.13;4.70;;;10.30;83.80;;;12.90;65.36;99396.97;4936785;29;20253;-48
2021/12/01 03:06:50;;;;;;;5.50;5.00;;;10.30;83.80;;;12.91;65.67;99388.81;4938342;29;20204;-49
2021/12/01 03:09:18;;;;;;;6.07;5.47;;;10.40;84.00;;;12.95;65.86;99385.75;4939239;29;20204;-48
2021/12/01 03:11:49;;;;;;;5.80;5.30;;;10.40;84.20;;;12.97;66.11;99367.84;4938495;29;20208;-49
2021/12/01 03:14:19;;;;;;;6.80;6.20;;;10.50;84.40;;;12.99;66.10;99363.13;4936290;29;20628;-50
2021/12/01 03:16:50;;;;;;;7.60;6.90;;;10.50;84.50;;;13.05;66.09;99355.09;4935976;29;20273;-48
2021/12/01 03:19:19;;;;;;;7.67;6.87;;;10.50;84.50;;;13.12;66.19;99347.94;4936008;29;20214;-51
2021/12/01 03:21:47;;;;;;;7.00;6.30;;;10.60;84.70;;;13.20;65.93;99334.41;4935990;29;20204;-50
2021/12/01 03:24:15;;;;;;;7.33;6.63;;;10.60;84.50;;;13.27;65.81;99324.53;4935989;29;20277;-49
2021/12/01 03:26:42;;;;;;;7.97;7.17;;;10.70;84.60;;;13.35;65.68;99316.31;4936026;29;20214;-49
2021/12/01 03:29:14;;;;;;;8.90;8.00;;;10.70;84.60;;;13.40;65.59;99311.13;4935714;29;20578;-48
2021/12/01 03:31:42;;;;;;;7.87;7.07;;;10.80;84.70;;;13.43;65.68;99302.75;4936428;29;20193;-49
2021/12/01 03:34:11;;;;;;;8.10;7.30;;;10.80;84.70;;;13.48;65.62;99300.22;4935779;29;20194;-49
2021/12/01 03:36:39;;;;;;;9.73;8.47;;;10.80;84.60;;;13.51;65.78;99293.66;4938875;29;20555;-51
2021/12/01 03:39:07;;;;;;;9.50;8.53;;;10.90;84.70;;;13.53;65.74;99281.84;4939078;29;20212;-49
2021/12/01 03:41:34;;;;;;;9.37;8.17;;;11.00;85.00;;;13.55;65.93;99274.47;4939556;29;20197;-51
2021/12/01 03:44:03;;;;;;;9.03;7.93;;;11.00;85.00;;;13.60;65.83;99270.34;4939769;29;20531;-52
2021/12/01 03:46:32;;;;;;;10.23;8.67;;;11.00;85.00;;;13.62;65.78;99263.78;4939785;29;20197;-48
2021/12/01 03:48:59;;;;;;;9.10;8.20;;;11.10;85.00;;;13.66;66.09;99253.56;4939298;29;20710;-50
2021/12/01 03:51:27;;;;;;;9.13;8.20;;;11.10;85.20;;;13.67;66.05;99239.31;4939509;29;20198;-50
2021/12/01 03:53:54;;;;;;;9.50;8.37;;;11.10;85.30;;;13.69;66.27;99231.94;4939501;29;20537;-51
2021/12/01 03:56:22;;;;;;;8.60;7.70;;;11.20;85.40;;;13.72;66.49;99231.47;4939604;29;20200;-51
2021/12/01 03:58:50;;;;;;;9.10;8.20;;;11.20;85.50;;;13.74;66.65;99234.72;4938840;29;20218;-50
2021/12/01 04:01:18;;;;;;;8.67;7.77;;;11.20;85.70;;;13.73;66.81;99222.50;4922164;29;20222;-51
2021/12/01 04:03:47;;;;;;;8.93;7.20;;;11.30;86.00;;;13.74;66.96;99218.84;4922664;29;20286;-49
2021/12/01 04:06:15;;;;;;;8.00;7.20;;;11.30;86.00;;;13.77;67.10;99213.06;4939229;29;20205;-50
2021/12/01 04:08:43;;;;;;;8.10;7.30;;;11.30;86.20;;;13.83;67.13;99206.88;4938624;29;20209;-49
2021/12/01 04:11:10;;;;;;;8.17;6.60;;;11.40;86.30;;;13.86;67.21;99199.25;4937672;29;20281;-52
2021/12/01 04:13:39;;;;;;;7.03;6.33;;;11.40;86.50;;;13.92;67.10;99194.88;4939112;29;20225;-49
2021/12/01 04:16:06;;;;;;;6.57;5.93;;;11.40;86.50;;;13.97;67.12;99187.06;4939068;29;20194;-50
2021/12/01 04:18:34;;;;;;;6.37;5.77;;;11.50;86.60;;;14.06;67.23;99188.28;4938626;29;20279;-49
2021/12/01 04:21:03;;;;;;;6.43;5.83;;;11.50;86.70;;;14.11;67.02;99185.75;4938737;29;20562;-50
2021/12/01 04:23:34;;;;;;;7.63;5.07;;;11.60;86.90;;;14.13;66.94;99170.44;4938786;29;20197;-50
2021/12/01 04:26:02;;;;;;;5.20;4.60;;;11.60;86.70;;;14.17;67.08;99167.06;4938760;29;20253;-51
2021/12/01 04:28:30;;;;;;;5.13;4.73;;;11.70;86.70;;;14.19;67.11;99161.56;4938462;29;20220;-51
2021/12/01 04:30:58;;;;;;;4.03;3.73;;;11.70;86.50;;;14.24;66.58;99157.16;4938353;29;20197;-52
2021/12/01 04:33:25;;;;;;;3.63;3.33;;;11.70;86.40;;;14.28;66.77;99152.19;4938507;29;20197;-50
2021/12/01 04:35:53;;;;;;;3.67;3.37;;;11.80;86.10;;;14.32;66.38;99144.59;4938328;29;20277;-48
2021/12/01 04:38:22;;;;;;;4.50;2.97;;;11.80;86.10;;;14.34;66.51;99140.69;4937965;29;20645;-50
2021/12/01 04:40:50;;;;;;;4.03;3.10;;;11.90;86.00;;;14.33;66.44;99133.78;4938592;29;20395;-48
2021/12/01 04:43:18;;;;;;;2.53;2.33;;;11.90;85.90;;;14.31;66.57;99125.25;4939036;29;20202;-49
2021/12/01 04:45:48;;;;;;;2.13;2.03;;;11.90;85.70;;;14.30;66.27;99118.38;4937863;29;20204;-49
2021/12/01 04:48:16;;;;;;;2.23;2.03;;;11.90;85.40;;;14.33;66.38;99117.91;4938205;29;20690;-49
2021/12/01 04:50:43;;;;;;;1.93;1.83;;;11.90;85.20;;;14.36;66.03;99106.81;4938092;29;20201;-50
2021/12/01 04:53:11;;;;;;;1.60;1.50;;;11.90;85.30;;;14.38;66.06;99104.75;4938515;29;20297;-49
2021/12/01 04:55:44;;;;;;;1.50;1.40;;;11.90;85.00;;;14.40;65.76;99091.28;4938663;29;20308;-52
2021/12/01 04:58:12;;;;;;;1.43;1.33;;;12.00;85.00;;;14.42;65.97;99087.34;4938005;29;20233;-52
2021/12/01 05:00:39;;;;;;;1.40;1.30;;;11.90;84.80;;;14.43;65.76;99090.81;4937931;29;20221;-50
2021/12/01 05:03:07;;;;;;;2.50;1.40;;;12.00;84.80;;;14.40;65.78;99080.69;4938105;29;20269;-49
2021/12/01 05:05:50;;;;;;;1.27;1.27;;;12.00;84.60;;;14.44;65.83;99087.91;4937881;29;20281;-49
2021/12/01 05:08:19;;;;;;;1.40;1.30;;;12.00;84.60;;;14.47;65.54;99071.56;4937459;29;20639;-48
2021/12/01 05:10:49;;;;;;;1.40;1.30;;;12.00;84.50;;;14.54;65.21;99081.97;4936815;29;20610;-50
2021/12/01 05:13:17;;;;;;;2.90;1.70;;;12.00;84.40;;;14.51;64.93;99062.06;4937689;29;20213;-49
2021/12/01 05:15:46;;;;;;;1.50;1.23;;;11.90;84.10;;;14.52;65.02;99069.00;4937654;29;20200;-49
2021/12/01 05:18:14;;;;;;;1.70;1.53;;;12.00;84.20;;;14.50;64.91;99060.47;4937766;29;20586;-52
2021/12/01 05:20:41;;;;;;;1.10;1.10;;;11.90;84.10;;;14.51;65.00;99067.38;4937767;29;20708;-50
2021/12/01 05:23:11;;;;;;;1.63;1.53;;;12.00;84.20;;;14.49;65.00;99048.28;4937722;29;20214;-52
2021/12/01 05:25:39;;;;;;;1.87;1.30;;;12.00;84.10;;;14.50;65.07;99038.50;4937555;29;20686;-51
2021/12/01 05:28:09;;;;;;;1.57;1.47;;;12.00;84.00;;;14.56;64.79;99033.03;4936969;29;20585;-50
2021/12/01 05:30:37;;;;;;;1.60;1.50;;;12.00;83.90;;;14.57;64.40;99024.03;4937836;29;20187;-50
2021/12/01 05:33:07;;;;;;;1.60;1.47;;;12.00;83.80;;;14.54;64.62;99007.84;4937639;29;20186;-51
2021/12/01 05:35:36;;;;;;;2.03;1.40;;;12.00;83.70;;;14.55;64.54;99006.78;4937535;29;20666;-51
2021/12/01 05:38:04;;;;;;;1.53;1.43;;;12.10;83.60;;;14.56;64.70;99006.56;4936759;29;20226;-50
2021/12/01 05:40:32;;;;;;;1.73;1.63;;;12.10;83.60;;;14.54;64.64;99000.72;4937368;29;20570;-52
2021/12/01 05:43:00;;;;;;;1.77;1.67;;;12.10;83.50;;;14.59;64.63;98995.50;4937664;29;20201;-51
2021/12/01 05:45:29;;;;;;;2.00;1.90;;;12.10;83.30;;;14.62;64.24;98988.91;4937342;29;20313;-49
2021/12/01 05:47:57;;;;;;;1.90;1.80;;;12.10;83.20;;;14.60;64.18;98975.91;4937083;29;20214;-50
2021/12/01 05:50:25;;;;;;;1.87;1.77;;;12.10;83.20;;;14.56;64.33;98974.78;4936948;29;20186;-50
2021/12/01 05:52:52;;;;;;;1.83;1.73;;;12.00;82.90;;;14.59;64.18;98962.91;4937653;29;20276;-50
2021/12/01 05:55:20;;;;;;;1.47;1.37;;;12.10;83.10;;;14.61;64.03;98958.97;4936868;29;20201;-50
2021/12/01 05:57:47;;;;;;;2.57;2.20;;;12.10;83.10;;;14.65;63.96;98952.13;4935553;29;20602;-51
2021/12/01 06:00:16;;;;;;;1.83;1.73;;;12.10;82.80;;;14.67;63.40;98955.34;4937465;29;20222;-49
2021/12/01 06:02:48;;;;;;;2.07;1.77;;;12.00;82.90;;;14.54;63.67;98957.53;4919928;29;20281;-50
2021/12/01 06:05:16;;;;;;;2.20;2.10;;;12.00;82.70;;;14.46;64.07;98940.22;4937709;29;20198;-50
2021/12/01 06:07:44;;;;;;;2.30;2.03;;;12.00;82.60;;;14.39;64.21;98936.94;4936667;29;20695;-50
2021/12/01 06:10:12;;;;;;;2.20;2.00;;;12.00;82.50;;;14.37;64.11;98931.09;4940618;29;20205;-51
2021/12/01 06:12:41;;;;;;;1.60;1.53;;;12.00;82.40;;;14.35;63.99;98922.59;4935582;29;20204;-51
2021/12/01 06:15:10;;;;;;;1.73;1.63;;;12.00;82.20;;;14.37;64.05;98917.88;4936814;29;20677;-49
2021/12/01 06:17:38;;;;;;;1.53;1.43;;;11.90;82.10;;;14.39;63.82;98907.84;4936686;29;20213;-49
2021/12/01 06:20:11;;;;;;;1.60;1.50;;;11.90;82.00;;;14.44;63.44;98907.91;4936632;29;20218;-51
2021/12/01 06:22:39;;;;;;;1.90;1.80;;;12.00;82.00;;;14.48;63.16;98895.78;4919776;29;20193;-50
2021/12/01 06:25:08;;;;;;;1.90;1.80;;;11.90;81.50;;;14.52;63.16;98902.19;4936938;29;20546;-50
2021/12/01 06:27:37;;;;;;;1.60;1.50;;;12.00;81.40;;;14.55;62.61;98890.28;4936158;29;20743;-51
2021/12/01 06:30:07;;;;;;;1.60;1.50;;;12.00;81.10;;;14.58;62.61;98877.38;4936936;29;20730;-48
2021/12/01 06:32:35;;;;;;;1.80;1.70;;;12.00;81.10;;;14.59;62.18;98883.47;4937104;29;20293;-49
2021/12/01 06:35:04;;;;;;;1.60;1.50;;;12.00;80.60;;;14.62;62.35;98873.19;4936742;29;20281;-52
2021/12/01 06:37:33;;;;;;;1.40;1.40;;;12.00;80.60;;;14.53;61.91;98869.38;4937022;29;20598;-50
2021/12/01 06:40:01;;;;;;;1.63;1.53;;;12.00;80.20;;;14.44;62.20;98862.91;4936921;29;20616;-50
2021/12/01 06:42:29;;;;;;;1.67;1.57;;;12.00;80.00;;;14.38;62.48;98858.56;4936910;29;20193;-48
2021/12/01 06:44:56;;;;;;;1.50;1.40;;;12.00;80.10;;;14.30;62.61;98861.66;4937312;29;20277;-50
2021/12/01 06:47:24;;;;;;;1.60;1.50;;;12.00;80.10;;;14.20;62.99;98850.91;4919879;29;20766;-49
2021/12/01 06:49:52;;;;;;;2.77;1.50;;;11.90;80.30;;;14.16;63.06;98847.16;4919713;29;20253;-50
2021/12/01 06:52:27;;;;;;;1.50;1.40;;;11.80;80.80;;;14.04;63.50;98846.44;4938526;29;20182;-50
2021/12/01 06:54:57;;;;;;;1.70;1.60;;;11.70;81.00;;;13.93;64.00;98847.38;4936855;29;20220;-50
2021/12/01 06:57:25;;;;;;;1.73;1.60;;;11.70;81.10;;;13.89;64.05;98846.22;4936139;29;20244;-51
2021/12/01 06:59:53;;;;;;;2.67;1.90;;;11.70;81.90;;;13.92;64.06;98824.59;4919189;29;20293;-49
2021/12/01 07:02:21;;;;;;;1.60;1.50;;;11.70;81.40;;;13.96;63.63;98844.22;4936659;29;20277;-47
2021/12/01 07:04:49;;;;;;;3.60;1.53;;;11.60;81.40;;;13.96;63.65;98830.97;4938314;29;20194;-51
2021/12/01 07:07:17;;;;;;;2.07;1.97;;;11.60;81.50;;;13.91;63.45;98828.25;4938621;29;20226;-50
2021/12/01 07:09:49;;;;;;;1.80;1.70;;;11.50;81.30;;;13.95;63.70;98826.75;4941273;29;20261;-48
2021/12/01 07:12:19;;;;;;;1.63;1.53;;;11.50;81.30;;;13.90;63.35;98806.34;4950096;29;20198;-49
2021/12/01 07:14:46;;;;;;;1.87;1.77;;;11.60;81.10;;;13.91;63.58;98813.22;4953069;29;20197;-50
2021/12/01 07:17:14;;;;;;;2.03;1.93;;;11.50;81.00;;;13.93;63.67;98808.47;4953797;29;20218;-53
2021/12/01 07:19:42;;;;;;;2.30;2.20;;;11.60;81.10;;;13.92;63.44;98798.94;4950971;29;20198;-49
2021/12/01 07:22:09;;;;;;;2.53;2.33;;;11.60;80.90;;;13.91;63.33;98802.63;4942471;29;20241;-49
2021/12/01 07:24:37;;;;;;;2.60;2.40;;;11.60;80.70;;;13.90;63.25;98792.31;4940296;29;20276;-49
2021/12/01 07:27:05;;;;;;;3.17;2.97;;;11.60;80.40;;;13.89;62.96;98788.84;4922408;29;20289;-50
2021/12/01 07:29:35;;;;;;;3.07;2.87;;;11.60;80.40;;;13.87;63.12;98782.19;4937605;29;20228;-49
2021/12/01 07:32:04;;;;;;;3.63;3.33;;;11.60;80.40;;;13.83;63.38;98778.44;4922753;29;20186;-51
2021/12/01 07:34:31;;;;;;;3.60;3.40;;;11.60;80.40;;;13.77;63.55;98776.75;4940200;29;20528;-51
2021/12/01 07:36:59;;;;;;;3.97;3.73;;;11.60;80.60;;;13.78;63.45;98775.72;4940948;29;20198;-48
2021/12/01 07:39:27;;;;;;;4.20;3.90;;;11.50;80.40;;;13.70;63.68;98762.91;4943577;29;20229;-51
2021/12/01 07:41:54;;;;;;;4.27;3.90;;;11.50;80.40;;;13.70;63.54;98753.16;4925834;29;20210;-48
2021/12/01 07:44:22;;;;;;;4.00;3.80;;;11.50;80.50;;;13.72;63.58;98742.31;4943216;29;20214;-50
2021/12/01 07:46:51;;;;;;;4.37;4.07;;;11.50;80.70;;;13.74;63.75;98732.31;4943390;29;20218;-49
2021/12/01 07:49:19;;;;;;;4.63;4.33;;;11.50;80.80;;;13.68;63.65;98734.09;4942659;29;20249;-50
2021/12/01 07:51:46;;;;;;;4.73;4.33;;;11.40;80.50;;;13.67;63.43;98731.69;4925820;29;20236;-49
2021/12/01 07:54:14;;;;;;;4.90;4.50;;;11.40;80.50;;;13.68;63.58;98728.00;4941792;29;20213;-49
2021/12/01 07:56:42;;;;;;;4.37;4.07;;;11.40;80.50;;;13.65;63.62;98717.91;4939989;29;20639;-49
2021/12/01 07:59:11;;;;;;;4.40;4.10;;;11.40;80.60;;;13.63;63.55;98704.13;4939167;29;20297;-50
2021/12/01 08:01:38;;;;;;;3.83;3.53;;;11.40;80.50;;;13.66;63.42;98719.50;4938509;29;20253;-51
2021/12/01 08:04:07;;;;;;;4.20;3.80;;;11.30;80.40;;;13.69;63.33;98700.53;4938153;29;20198;-50
2021/12/01 08:06:35;;;;;;;3.80;3.50;;;11.40;80.40;;;13.77;63.20;98700.09;4939407;29;20690;-51
2021/12/01 08:09:04;;;;;;;4.77;3.30;;;11.30;80.40;;;13.83;62.96;98685.91;4938827;29;20225;-49
2021/12/01 08:11:32;;;;;;;3.40;3.20;;;11.40;80.60;;;13.86;62.52;98685.41;4939107;29;20563;-49
2021/12/01 08:14:00;;;;;;;3.60;3.40;;;11.40;80.30;;;13.85;62.63;98687.25;4938978;29;20269;-49
2021/12/01 08:16:28;;;;;;;3.50;3.20;;;11.40;80.10;;;13.81;62.69;98686.13;4940405;29;20639;-49
2021/12/01 08:18:56;;;;;;;2.93;2.73;;;11.40;80.10;;;13.76;62.99;98678.16;4939506;29;20250;-50
2021/12/01 08:21:25;;;;;;;2.67;2.47;;;11.40;80.10;;;13.73;62.75;98681.28;4938200;29;20240;-52
2021/12/01 08:24:11;;;;;;;2.90;2.70;;;11.40;80.10;;;13.72;63.03;98665.66;4940067;29;20198;-50
2021/12/01 08:26:40;;;;;;;2.80;2.60;;;11.40;80.20;;;13.74;62.80;98666.22;4937958;29;20686;-50
2021/12/01 08:29:08;;;;;;;3.17;2.87;;;11.30;80.80;;;13.72;62.65;98652.44;4938848;29;20213;-47
2021/12/01 08:31:36;;;;;;;3.70;2.87;;;11.30;80.00;;;13.68;62.69;98638.91;4938753;29;20196;-50
2021/12/01 08:34:04;;;;;;;2.77;2.57;;;11.30;79.90;;;13.67;62.66;98647.09;4939084;29;20208;-49
2021/12/01 08:36:33;;;;;;;2.57;2.40;;;11.30;79.80;;;13.66;62.76;98651.59;4939656;29;20194;-51
2021/12/01 08:39:02;;;;;;;3.13;2.83;;;11.30;80.00;;;13.64;62.87;98643.09;4939013;29;20674;-50
2021/12/01 08:41:30;;;;;;;2.50;2.37;;;11.30;80.00;;;13.61;62.94;98638.31;4939182;29;20614;-50
2021/12/01 08:43:57;;;;;;;2.40;2.20;;;11.30;80.10;;;13.59;62.75;98650.97;4939462;29;20257;-48
2021/12/01 08:46:25;;;;;;;2.60;2.50;;;11.30;79.90;;;13.64;62.85;98624.59;4940914;29;20214;-50
2021/12/01 08:48:53;;;;;;;4.73;3.80;;;11.30;80.00;;;13.71;62.72;98622.56;4922209;29;20245;-50
2021/12/01 08:51:20;;;;;;;2.50;2.30;;;11.30;80.00;;;13.76;62.56;98627.91;4939396;29;20218;-51
2021/12/01 08:53:49;;;;;;;2.40;2.20;;;11.30;80.20;;;13.72;62.52;98607.47;4938877;29;20220;-49
2021/12/01 08:56:17;;;;;;;2.20;2.00;;;11.30;80.10;;;13.67;62.77;98610.88;4921578;29;20205;-50
2021/12/01 08:58:45;;;;;;;2.33;2.13;;;11.30;80.20;;;13.71;62.65;98609.34;4938175;29;20224;-48
2021/12/01 09:01:13;;;;;;;2.00;1.87;;;11.30;80.00;;;13.74;62.67;98602.78;4938839;29;20216;-48
2021/12/01 09:03:41;;;;;;;4.90;1.90;;;11.30;80.00;;;13.76;62.51;98592.75;4938563;29;20261;-49
2021/12/01 09:06:09;;;;;;;3.17;1.87;;;11.30;80.00;;;13.75;62.41;98580.56;4937877;29;20189;-49
2021/12/01 09:08:37;;;;;;;1.60;1.50;;;11.30;79.80;;;13.77;62.54;98578.47;4938363;29;20256;-51
2021/12/01 09:11:07;;;;;;;1.80;1.70;;;11.30;79.90;;;13.78;62.21;98574.78;4937736;29;20229;-48
2021/12/01 09:13:36;;;;;;;2.03;1.83;;;11.30;79.70;;;13.76;62.45;98582.16;4937932;29;20209;-49
2021/12/01 09:16:05;;;;;;;1.70;1.60;;;11.30;79.50;;;13.77;62.18;98578.47;4937363;29;20194;-51
2021/12/01 09:18:37;;;;;;;1.50;1.40;;;11.30;79.40;;;13.66;62.29;98576.75;4918648;29;20285;-50
2021/12/01 09:21:05;;;;;;;1.57;1.40;;;11.30;79.30;;;13.68;62.52;98556.16;4919300;29;20734;-49
2021/12/01 09:23:33;;;;;;;1.43;1.23;;;11.30;79.30;;;13.77;62.04;98557.31;4919199;29;20221;-50
2021/12/01 09:26:01;;;;;;;1.20;1.20;;;11.30;79.10;;;13.75;61.77;98560.22;4919281;29;20202;-50
2021/12/01 09:28:30;;;;;;;1.33;1.23;;;11.30;79.00;;;13.80;62.17;98546.25;4917478;29;20756;-49
2021/12/01 09:30:58;;;;;;;1.40;1.30;;;11.40;79.20;;;13.85;61.84;98533.88;4919010;29;20221;-48
2021/12/01 09:33:28;;;;;;;4.07;3.27;;;11.40;79.20;;;13.84;61.86;98536.75;4918001;29;20217;-49
2021/12/01 09:35:56;;;;;;;4.23;1.37;;;11.40;79.00;;;13.83;62.07;98533.34;4919566;29;20179;-49
2021/12/01 09:38:26;;;;;;;1.30;1.20;;;11.40;79.20;;;13.77;62.20;98525.59;4928478;29;20234;-50
2021/12/01 09:40:57;;;;;;;1.23;1.13;;;11.40;79.30;;;13.75;62.47;98519.75;4938042;29;20228;-49
2021/12/01 09:43:31;;;;;;;1.30;1.20;;;11.40;79.50;;;13.73;62.77;98513.91;4937931;29;20614;-49
2021/12/01 09:46:03;;;;;;;2.17;1.50;;;11.40;79.80;;;13.73;62.77;98511.28;4938605;29;20711;-48
2021/12/01 09:48:32;;;;;;;1.33;1.23;;;11.40;80.10;;;13.64;63.44;98488.97;4920703;29;20234;-50
2021/12/01 09:51:14;;;;;;;1.20;1.20;;;11.40;80.30;;;13.55;63.80;98486.78;4943625;29;20216;-52
2021/12/01 09:53:42;;;;;;;1.40;1.30;;;11.40;80.60;;;13.62;63.45;98483.16;4942882;29;20563;-49
2021/12/01 09:56:12;;;;;;;2.07;1.47;;;11.40;80.50;;;13.71;63.57;98479.00;4937099;29;20602;-49
2021/12/01 09:58:43;;;;;;;1.20;1.20;;;11.40;80.60;;;13.76;63.38;98460.56;4920248;29;20289;-50
2021/12/01 10:01:16;;;;;;;1.13;1.03;;;11.40;80.60;;;13.83;63.10;98466.44;4936561;29;20711;-49
2021/12/01 10:03:45;;;;;;;1.20;1.20;;;11.40;80.50;;;13.83;62.75;98455.84;4937806;29;20202;-49
2021/12/01 10:06:17;;;;;;;1.17;1.17;;;11.40;80.30;;;13.78;62.72;98463.72;4937796;29;20276;-49
2021/12/01 10:08:49;;;;;;;2.30;1.20;;;11.40;80.00;;;13.79;62.80;98438.88;4935961;29;20234;-47
2021/12/01 10:11:20;;;;;;;1.10;0.90;;;11.50;80.10;;;13.83;62.47;98439.97;4945219;28;20218;-49
2021/12/01 10:13:55;;;;;;;0.83;0.83;;;11.50;80.00;;;13.93;62.48;98440.06;4931788;29;20217;-50
2021/12/01 10:16:25;;;;;;;1.30;1.20;;;11.50;79.70;;;14.02;62.40;98438.56;4935503;29;20198;-49
2021/12/01 10:18:55;;;;;;;1.03;0.93;;;11.60;79.70;;;14.06;62.14;98432.50;4935015;29;20651;-50
2021/12/01 10:21:30;;;;;;;1.10;1.00;;;11.60;79.50;;;14.13;61.66;98421.69;4919107;29;20249;-50
2021/12/01 10:24:01;;;;;;;1.17;1.10;;;11.60;79.20;;;14.24;61.42;98413.56;4933960;29;20261;-49
2021/12/01 10:26:31;;;;;;;1.27;1.10;;;11.60;78.90;;;14.35;61.03;98406.53;4933767;29;20822;-50
2021/12/01 10:29:05;;;;;;;1.27;0.93;;;11.60;78.90;;;14.37;60.69;98409.72;4932246;29;20234;-48
2021/12/01 10:31:39;;;;;;;1.23;1.13;;;11.70;78.80;;;14.44;60.60;98401.53;4933675;29;20337;-49